Allen, Nebraska
Current Conditions -  °F | °C
As of 9:15 PM on Saturday 22 Nov 2014 (Local Time) from KLCG Reporting Station
Broken Clouds Broken Clouds  
Wind Chill: 37°   Ceiling: 600
Heat Index: 45°   Visibility: 7mi
Dew Point: 43°   Wind: 16mph
Humidity: 94%   Direction: 190°S
Pressure: 29.52"   Gusts: 22mph
Location:  42.42°N, 96.85°W
Report Text: KLCG 230315Z AUTO 19014G19KT 7SM BKN006 07/06 A2952 RMK AO2 T00700061
Loading
Personal Weather Stations






























Interactive Weather Map New forecast layout! Learn more

10-Day Weather Forecast

Advertisements
Track Severe Weather on mobile